createdAt,value
2018-12-20T00:01:10.651Z,20.17
2018-12-20T00:03:38.968Z,20.80
2018-12-20T00:06:07.237Z,21.40
2018-12-20T00:08:36.001Z,17.83
2018-12-20T00:11:04.249Z,20.83
2018-12-20T00:13:32.443Z,22.93
2018-12-20T00:16:00.746Z,24.20
2018-12-20T00:18:28.903Z,23.17
2018-12-20T00:20:57.226Z,20.40
2018-12-20T00:23:25.589Z,22.50
2018-12-20T00:25:53.841Z,19.57
2018-12-20T00:28:22.061Z,19.70
2018-12-20T00:30:50.271Z,21.60
2018-12-20T00:33:18.583Z,19.80
2018-12-20T00:35:46.772Z,22.00
2018-12-20T00:38:15.015Z,20.30
2018-12-20T00:40:43.241Z,21.37
2018-12-20T00:43:11.430Z,21.67
2018-12-20T00:45:39.776Z,24.83
2018-12-20T00:48:08.002Z,26.97
2018-12-20T00:50:36.332Z,29.67
2018-12-20T00:53:04.535Z,26.33
2018-12-20T00:55:32.872Z,29.57
2018-12-20T00:58:01.177Z,33.10
2018-12-20T01:00:29.528Z,29.30
2018-12-20T01:02:57.930Z,30.53
2018-12-20T01:05:26.164Z,35.47
2018-12-20T01:07:54.307Z,27.83
2018-12-20T01:10:22.477Z,29.07
2018-12-20T01:12:51.354Z,31.40
2018-12-20T01:15:19.787Z,29.73
2018-12-20T01:17:47.971Z,30.93
2018-12-20T01:20:16.289Z,33.40
2018-12-20T01:22:44.447Z,29.13
2018-12-20T01:25:12.593Z,30.53
2018-12-20T01:27:40.907Z,34.50
2018-12-20T01:30:09.236Z,32.13
2018-12-20T01:32:37.523Z,36.27
2018-12-20T01:35:05.821Z,30.97
2018-12-20T01:37:34.032Z,34.90
2018-12-20T01:40:02.581Z,32.70
2018-12-20T01:42:30.878Z,36.67
2018-12-20T01:44:59.099Z,32.83
2018-12-20T01:47:27.321Z,32.73
2018-12-20T01:49:55.576Z,34.83
2018-12-20T01:52:23.741Z,33.60
2018-12-20T01:54:52.006Z,34.70
2018-12-20T01:57:20.904Z,37.13
2018-12-20T01:59:49.322Z,34.63
2018-12-20T02:02:17.620Z,36.00
2018-12-20T02:04:45.762Z,34.33
2018-12-20T02:07:14.069Z,38.43
2018-12-20T02:09:42.320Z,39.43
2018-12-20T02:12:10.634Z,38.07
2018-12-20T02:14:38.797Z,41.27
2018-12-20T02:17:07.000Z,39.93
2018-12-20T02:19:35.188Z,35.70
2018-12-20T02:22:03.670Z,45.87
2018-12-20T02:24:32.081Z,41.13
2018-12-20T02:27:00.257Z,40.40
2018-12-20T02:29:28.704Z,42.53
2018-12-20T02:31:59.018Z,40.23
2018-12-20T02:34:27.364Z,40.87
2018-12-20T02:36:55.619Z,41.57
2018-12-20T02:39:24.077Z,44.07
2018-12-20T02:41:52.360Z,39.63
2018-12-20T02:44:20.649Z,37.17
2018-12-20T02:46:49.162Z,38.47
2018-12-20T02:49:17.933Z,44.37
2018-12-20T02:51:46.332Z,40.37
2018-12-20T02:54:15.299Z,42.00
2018-12-20T02:56:43.692Z,42.20
2018-12-20T02:59:11.938Z,40.23
2018-12-20T03:01:40.225Z,37.20
2018-12-20T03:04:08.496Z,37.37
2018-12-20T03:06:36.920Z,44.73
2018-12-20T03:09:07.181Z,44.83
2018-12-20T03:11:35.527Z,41.80
2018-12-20T03:14:03.886Z,39.83
2018-12-20T03:16:32.187Z,48.77
2018-12-20T03:19:00.526Z,45.60
2018-12-20T03:21:29.003Z,38.43
2018-12-20T03:23:57.521Z,42.83
2018-12-20T03:26:25.811Z,45.37
2018-12-20T03:28:54.777Z,44.83
2018-12-20T03:31:23.107Z,46.70
2018-12-20T03:33:51.346Z,44.77
2018-12-20T03:36:19.671Z,44.70
2018-12-20T03:38:47.968Z,48.50
2018-12-20T03:41:16.402Z,48.33
2018-12-20T03:43:44.936Z,50.60
2018-12-20T03:46:13.572Z,51.43
2018-12-20T03:48:41.924Z,53.17
2018-12-20T03:51:10.145Z,54.27
2018-12-20T03:53:38.601Z,49.80
2018-12-20T03:56:06.978Z,51.97
2018-12-20T03:58:35.474Z,50.27
2018-12-20T04:01:03.848Z,52.57
2018-12-20T04:03:32.129Z,60.07
2018-12-20T04:06:00.382Z,52.83
2018-12-20T04:08:29.220Z,55.73
2018-12-20T04:10:57.556Z,54.93
2018-12-20T04:13:25.913Z,56.67
2018-12-20T04:15:54.254Z,56.03
2018-12-20T04:18:22.643Z,52.77
2018-12-20T04:20:50.898Z,53.30
2018-12-20T04:23:19.532Z,53.03
2018-12-20T04:25:47.681Z,48.37
2018-12-20T04:28:15.866Z,55.50
2018-12-20T04:30:44.307Z,53.00
2018-12-20T04:33:12.703Z,54.30
2018-12-20T04:35:41.106Z,52.33
2018-12-20T04:38:09.330Z,47.53
2018-12-20T04:40:37.796Z,45.80
2018-12-20T04:43:06.028Z,45.97
2018-12-20T04:45:34.440Z,43.87
2018-12-20T04:48:03.465Z,48.67
2018-12-20T04:50:31.673Z,49.63
2018-12-20T04:53:00.008Z,49.50
2018-12-20T04:55:28.177Z,48.20
2018-12-20T04:57:57.430Z,46.87
2018-12-20T05:00:26.523Z,51.70
2018-12-20T05:02:54.836Z,44.53
2018-12-20T05:05:23.706Z,43.93
2018-12-20T05:07:51.860Z,45.97
2018-12-20T05:10:20.678Z,47.80
2018-12-20T05:12:48.899Z,52.90
2018-12-20T05:15:17.092Z,52.23
2018-12-20T05:17:45.585Z,49.50
2018-12-20T05:20:14.153Z,47.40
2018-12-20T05:22:42.361Z,54.53
2018-12-20T05:25:10.570Z,49.83
2018-12-20T05:27:38.823Z,48.47
2018-12-20T05:30:08.285Z,56.87
2018-12-20T05:32:36.861Z,51.13
2018-12-20T05:35:05.401Z,51.50
2018-12-20T05:37:33.742Z,51.53
2018-12-20T05:40:02.101Z,53.23
2018-12-20T05:42:30.451Z,52.77
2018-12-20T05:44:59.187Z,56.23
2018-12-20T05:47:27.466Z,56.30
2018-12-20T05:49:55.720Z,52.23
2018-12-20T05:52:24.069Z,52.13
2018-12-20T05:54:52.427Z,50.97
2018-12-20T05:57:21.347Z,50.77
2018-12-20T05:59:49.642Z,52.83
2018-12-20T06:02:18.034Z,54.43
2018-12-20T06:04:46.275Z,56.43
2018-12-20T06:07:14.530Z,55.53
2018-12-20T06:09:42.778Z,49.03
2018-12-20T06:12:11.099Z,52.17
2018-12-20T06:14:39.365Z,54.13
2018-12-20T06:17:08.137Z,48.23
2018-12-20T06:19:36.425Z,50.87
2018-12-20T06:22:04.648Z,50.07
2018-12-20T06:24:32.956Z,49.83
2018-12-20T06:27:01.171Z,51.37
2018-12-20T06:29:29.391Z,47.47
2018-12-20T06:31:57.614Z,47.47
2018-12-20T06:34:25.863Z,50.43
2018-12-20T06:36:54.789Z,49.53
2018-12-20T06:39:22.991Z,47.33
2018-12-20T06:41:51.646Z,53.27
2018-12-20T06:44:19.804Z,48.53
2018-12-20T06:46:50.340Z,44.97
2018-12-20T06:49:18.475Z,49.23
2018-12-20T06:51:46.630Z,47.27
2018-12-20T06:54:14.837Z,48.03
2018-12-20T06:56:42.994Z,47.60
2018-12-20T06:59:11.376Z,41.60
2018-12-20T07:01:39.802Z,47.50
2018-12-20T07:04:08.015Z,45.73
2018-12-20T07:06:36.150Z,48.80
2018-12-20T07:09:07.181Z,48.57
2018-12-20T07:11:35.333Z,47.27
2018-12-20T07:14:03.992Z,47.30
2018-12-20T07:16:33.100Z,47.60
2018-12-20T07:19:01.415Z,44.63
2018-12-20T07:21:29.635Z,53.17
2018-12-20T07:23:57.843Z,47.53
2018-12-20T07:26:26.043Z,49.60
2018-12-20T07:28:54.209Z,51.97
2018-12-20T07:31:22.442Z,45.30
2018-12-20T07:33:50.653Z,52.17
2018-12-20T07:36:18.895Z,50.87
2018-12-20T07:38:47.069Z,48.07
2018-12-20T07:41:15.345Z,45.57
2018-12-20T07:43:43.775Z,48.47
2018-12-20T07:46:11.942Z,48.00
2018-12-20T07:48:40.076Z,49.67
2018-12-20T07:51:08.246Z,51.00
2018-12-20T07:53:36.565Z,47.63
2018-12-20T07:56:04.815Z,47.87
2018-12-20T07:58:32.955Z,48.30
2018-12-20T08:01:01.142Z,48.37
2018-12-20T08:03:29.342Z,45.93
2018-12-20T08:05:57.600Z,44.13
2018-12-20T08:08:25.764Z,43.67
2018-12-20T08:10:53.991Z,44.63
2018-12-20T08:13:22.719Z,41.27
2018-12-20T08:15:50.929Z,41.77
2018-12-20T08:18:19.083Z,43.13
2018-12-20T08:20:47.300Z,44.67
2018-12-20T08:23:15.460Z,44.80
2018-12-20T08:25:43.684Z,41.40
2018-12-20T08:28:11.874Z,39.67
2018-12-20T08:30:40.026Z,35.37
2018-12-20T08:33:08.251Z,37.50
2018-12-20T08:35:36.421Z,35.73
2018-12-20T08:38:05.274Z,34.73
2018-12-20T08:40:33.413Z,34.30
2018-12-20T08:43:01.620Z,34.03
2018-12-20T08:45:29.960Z,35.83
2018-12-20T08:47:58.176Z,34.97
2018-12-20T08:50:26.325Z,37.37
2018-12-20T08:52:54.545Z,36.23
2018-12-20T08:55:22.739Z,29.83
2018-12-20T08:57:51.008Z,34.97
2018-12-20T09:00:19.366Z,33.97
2018-12-20T09:02:47.755Z,30.87
2018-12-20T09:05:15.905Z,31.23
2018-12-20T09:07:44.224Z,28.83
2018-12-20T09:10:12.427Z,26.63
2018-12-20T09:12:43.346Z,30.57
2018-12-20T09:15:11.608Z,28.07
2018-12-20T09:17:39.813Z,29.03
2018-12-20T09:20:08.139Z,25.90
2018-12-20T09:22:36.299Z,26.40
2018-12-20T09:25:04.725Z,26.83
2018-12-20T09:27:32.886Z,28.27
2018-12-20T09:30:01.189Z,26.10
2018-12-20T09:32:29.449Z,24.60
2018-12-20T09:34:57.674Z,24.80
2018-12-20T09:37:25.997Z,24.30
2018-12-20T09:39:56.169Z,25.80
2018-12-20T09:42:24.381Z,22.73
2018-12-20T09:44:52.634Z,25.33
2018-12-20T09:47:26.731Z,24.50
2018-12-20T09:49:55.005Z,27.67
2018-12-20T09:52:23.232Z,24.03
2018-12-20T09:54:51.446Z,22.03
2018-12-20T09:57:19.717Z,24.03
2018-12-20T09:59:47.954Z,23.07
2018-12-20T10:02:16.173Z,22.03
2018-12-20T10:04:44.390Z,23.83
2018-12-20T10:07:12.565Z,22.97
2018-12-20T10:09:42.069Z,27.63
2018-12-20T10:12:10.214Z,24.90
2018-12-20T10:14:38.397Z,21.00
2018-12-20T10:17:06.658Z,25.23
2018-12-20T10:19:34.868Z,25.20
2018-12-20T10:22:03.019Z,22.70
2018-12-20T10:24:31.576Z,24.60
2018-12-20T10:26:59.765Z,20.80
2018-12-20T10:29:27.968Z,22.83
2018-12-20T10:31:56.163Z,22.43
2018-12-20T10:34:24.389Z,23.73
2018-12-20T10:36:52.628Z,23.30
2018-12-20T10:39:21.035Z,22.03
2018-12-20T10:41:49.202Z,23.20
2018-12-20T10:44:17.370Z,25.40
2018-12-20T10:46:45.526Z,22.00
2018-12-20T10:49:14.538Z,22.70
2018-12-20T10:51:42.688Z,21.13
2018-12-20T10:54:10.847Z,24.10
2018-12-20T10:56:39.612Z,23.87
2018-12-20T10:59:07.854Z,23.03
2018-12-20T11:01:42.002Z,20.33
2018-12-20T11:04:15.922Z,21.33
2018-12-20T11:09:50.640Z,21.40
2018-12-20T11:12:22.896Z,20.97
2018-12-20T11:14:51.048Z,21.67
2018-12-20T11:17:19.259Z,20.30
2018-12-20T11:19:47.483Z,20.80
2018-12-20T11:22:15.706Z,23.10
2018-12-20T11:24:44.928Z,19.37
2018-12-20T11:27:13.185Z,19.33
2018-12-20T11:29:41.379Z,21.93
2018-12-20T11:32:09.605Z,19.63
2018-12-20T11:34:38.096Z,20.07
2018-12-20T11:37:06.238Z,19.27
2018-12-20T11:39:34.404Z,23.03
2018-12-20T11:42:02.636Z,22.17
2018-12-20T11:44:30.836Z,23.17
2018-12-20T11:46:59.138Z,22.90
2018-12-20T11:49:27.290Z,22.33
2018-12-20T11:51:55.574Z,21.93
2018-12-20T11:54:23.827Z,23.57
2018-12-20T11:56:52.078Z,27.97
2018-12-20T11:59:20.374Z,24.77
2018-12-20T12:01:48.633Z,26.20
2018-12-20T12:04:16.845Z,25.13
2018-12-20T12:06:45.917Z,24.60
2018-12-20T12:09:14.158Z,23.00
2018-12-20T12:11:42.309Z,22.90
2018-12-20T12:14:10.486Z,26.17
2018-12-20T12:16:38.767Z,28.97
2018-12-20T12:19:06.973Z,24.77
2018-12-20T12:21:35.729Z,28.27
2018-12-20T12:24:03.881Z,28.93
2018-12-20T12:26:32.085Z,25.53
2018-12-20T12:29:00.240Z,23.27
2018-12-20T12:31:28.545Z,24.43
2018-12-20T12:33:56.907Z,22.20
2018-12-20T12:36:25.065Z,25.40
2018-12-20T12:38:53.220Z,23.97
2018-12-20T12:41:21.479Z,27.47
2018-12-20T12:43:51.005Z,24.60
2018-12-20T12:46:19.661Z,28.77
2018-12-20T12:48:47.967Z,23.43
2018-12-20T12:51:16.136Z,23.83
2018-12-20T12:53:44.287Z,23.10
2018-12-20T12:56:12.508Z,25.80
2018-12-20T12:58:41.442Z,27.67
2018-12-20T13:01:09.649Z,24.83
2018-12-20T13:03:37.826Z,21.50
2018-12-20T13:06:06.029Z,27.37
2018-12-20T13:08:35.389Z,22.40
2018-12-20T13:11:03.535Z,24.27
2018-12-20T13:13:31.688Z,22.00
2018-12-20T13:15:59.850Z,20.90
2018-12-20T13:18:28.160Z,22.03
2018-12-20T13:20:56.467Z,21.70
2018-12-20T13:23:25.748Z,19.77
2018-12-20T13:25:54.045Z,21.43
2018-12-20T13:28:22.199Z,22.20
2018-12-20T13:30:50.417Z,21.17
2018-12-20T13:33:18.577Z,20.50
2018-12-20T13:35:46.870Z,23.97
2018-12-20T13:38:15.102Z,26.27
2018-12-20T13:40:43.269Z,20.43
2018-12-20T13:43:11.751Z,21.97
2018-12-20T13:45:40.194Z,22.23
2018-12-20T13:48:08.387Z,20.90
2018-12-20T13:50:36.553Z,19.77
2018-12-20T13:53:04.701Z,20.47
2018-12-20T13:55:32.870Z,20.27
2018-12-20T13:58:05.155Z,23.70
2018-12-20T14:00:33.383Z,23.50
2018-12-20T14:03:01.527Z,28.27
2018-12-20T14:05:30.620Z,22.10
2018-12-20T14:07:59.214Z,20.73
2018-12-20T14:10:27.571Z,23.67
2018-12-20T14:12:55.795Z,21.93
2018-12-20T14:15:24.149Z,22.63
2018-12-20T14:17:52.389Z,20.17
2018-12-20T14:20:20.644Z,22.03
2018-12-20T14:22:48.794Z,19.97
2018-12-20T14:25:16.966Z,20.97
2018-12-20T14:27:45.153Z,22.07
2018-12-20T14:30:13.414Z,21.33
2018-12-20T14:32:41.559Z,21.13
2018-12-20T14:35:09.775Z,19.83
2018-12-20T14:37:37.928Z,23.70
2018-12-20T14:40:07.688Z,23.97
2018-12-20T14:42:37.689Z,25.30
2018-12-20T14:45:06.289Z,22.47
2018-12-20T14:47:34.441Z,20.00
2018-12-20T14:50:02.725Z,21.73
2018-12-20T14:52:30.940Z,25.63
2018-12-20T14:54:59.098Z,30.00
2018-12-20T14:57:27.250Z,24.17
2018-12-20T14:59:55.394Z,24.40
2018-12-20T15:02:23.960Z,27.90
2018-12-20T15:04:52.122Z,23.07
2018-12-20T15:07:20.267Z,22.23
2018-12-20T15:09:48.419Z,22.03
2018-12-20T15:12:16.573Z,24.17
2018-12-20T15:14:44.777Z,22.10
2018-12-20T15:17:12.935Z,19.63
2018-12-20T15:19:41.094Z,23.13
2018-12-20T15:22:09.362Z,22.20
2018-12-20T15:24:37.642Z,24.03
2018-12-20T15:27:05.824Z,22.47
2018-12-20T15:29:34.071Z,22.13
2018-12-20T15:32:02.320Z,18.03
2018-12-20T15:34:31.227Z,20.97
2018-12-20T15:36:59.453Z,23.07
2018-12-20T15:39:27.751Z,20.87
2018-12-20T15:41:55.943Z,23.13
2018-12-20T15:44:24.149Z,19.43
2018-12-20T15:46:52.440Z,21.33
2018-12-20T15:49:20.688Z,22.63
2018-12-20T15:51:48.921Z,23.03
2018-12-20T15:54:17.076Z,26.77
2018-12-20T15:56:45.225Z,32.10
2018-12-20T15:59:13.376Z,27.90
2018-12-20T16:01:41.536Z,24.73
2018-12-20T16:04:09.765Z,31.27
2018-12-20T16:06:38.774Z,27.13
2018-12-20T16:09:07.600Z,19.60
2018-12-20T16:11:36.481Z,25.10
2018-12-20T16:14:04.706Z,20.40
2018-12-20T16:16:32.864Z,26.33
2018-12-20T16:19:04.836Z,26.97
2018-12-20T16:21:31.146Z,26.17
2018-12-20T16:23:59.362Z,23.13
2018-12-20T16:26:27.590Z,24.10
2018-12-20T16:28:55.943Z,22.40
2018-12-20T16:31:24.170Z,18.33
2018-12-20T16:33:52.434Z,17.03
2018-12-20T16:36:20.603Z,18.07
2018-12-20T16:38:48.968Z,18.37
2018-12-20T16:41:17.150Z,17.37
2018-12-20T16:43:45.394Z,19.73
2018-12-20T16:46:13.942Z,21.00
2018-12-20T16:48:42.117Z,19.93
2018-12-20T16:51:10.256Z,20.37
2018-12-20T16:53:38.420Z,20.07
2018-12-20T16:56:06.868Z,22.77
2018-12-20T16:58:35.024Z,21.27
2018-12-20T17:01:03.257Z,21.27
2018-12-20T17:03:31.407Z,19.00
2018-12-20T17:05:59.589Z,19.47
2018-12-20T17:08:28.058Z,19.27
2018-12-20T17:10:56.257Z,19.40
2018-12-20T17:13:24.497Z,20.40
2018-12-20T17:15:52.656Z,21.83
2018-12-20T17:18:20.868Z,20.83
2018-12-20T17:20:49.097Z,22.20
2018-12-20T17:23:17.267Z,23.90
2018-12-20T17:25:45.546Z,21.50
2018-12-20T17:28:13.708Z,23.87
2018-12-20T17:30:41.859Z,25.87
2018-12-20T17:33:10.734Z,29.40
2018-12-20T17:35:39.839Z,29.37
2018-12-20T17:38:08.078Z,28.77
2018-12-20T17:40:36.288Z,29.50
2018-12-20T17:43:04.433Z,31.53
2018-12-20T17:45:32.737Z,27.73
2018-12-20T17:48:00.890Z,31.43
2018-12-20T17:50:29.141Z,34.60
2018-12-20T17:52:57.276Z,32.67
2018-12-20T17:55:25.510Z,30.83
2018-12-20T17:57:53.753Z,33.13
2018-12-20T18:00:21.924Z,33.43
2018-12-20T18:02:50.193Z,34.30
2018-12-20T18:05:18.368Z,31.23
2018-12-20T18:07:46.518Z,37.47
2018-12-20T18:10:14.769Z,37.00
2018-12-20T18:12:42.942Z,36.70
2018-12-20T18:15:11.128Z,38.50
2018-12-20T18:17:39.866Z,40.50
2018-12-20T18:20:08.402Z,41.83
2018-12-20T18:22:36.565Z,41.37
2018-12-20T18:25:05.193Z,37.63
2018-12-20T18:27:33.335Z,39.53
2018-12-20T18:30:01.475Z,42.20
2018-12-20T18:32:29.698Z,39.50
2018-12-20T18:34:57.854Z,41.97
2018-12-20T18:37:26.069Z,42.37
2018-12-20T18:39:54.283Z,44.80
2018-12-20T18:42:22.492Z,43.57
2018-12-20T18:44:50.648Z,44.27
2018-12-20T18:47:18.875Z,45.53
2018-12-20T18:49:47.651Z,47.77
2018-12-20T18:52:16.221Z,44.53
2018-12-20T18:54:44.466Z,45.37
2018-12-20T18:57:12.621Z,45.57
2018-12-20T18:59:40.898Z,43.07
2018-12-20T19:02:09.029Z,49.87
2018-12-20T19:04:37.186Z,47.93
2018-12-20T19:07:05.332Z,51.00
2018-12-20T19:09:33.551Z,55.97
2018-12-20T19:12:01.772Z,51.57
2018-12-20T19:14:29.933Z,50.90
2018-12-20T19:16:58.088Z,51.97
2018-12-20T19:19:26.278Z,50.57
2018-12-20T19:21:54.460Z,52.87
2018-12-20T19:24:22.605Z,49.60
2018-12-20T19:26:51.231Z,50.80
2018-12-20T19:29:19.383Z,50.50
2018-12-20T19:31:47.555Z,50.67
2018-12-20T19:34:15.864Z,50.93
2018-12-20T19:36:44.065Z,52.97
2018-12-20T19:39:12.214Z,47.47
2018-12-20T19:41:40.407Z,48.67
2018-12-20T19:44:08.631Z,47.23
2018-12-20T19:46:36.869Z,47.97
2018-12-20T19:49:05.006Z,50.43
2018-12-20T19:51:33.237Z,52.73
2018-12-20T19:54:01.485Z,48.37
2018-12-20T19:56:29.716Z,48.40
2018-12-20T19:58:57.944Z,48.77
2018-12-20T20:01:26.158Z,50.90
2018-12-20T20:03:54.926Z,55.97
2018-12-20T20:06:23.085Z,49.90
2018-12-20T20:08:51.236Z,51.40
2018-12-20T20:11:19.385Z,54.37
2018-12-20T20:13:47.563Z,54.17
2018-12-20T20:16:15.721Z,50.80
2018-12-20T20:18:43.858Z,45.50
2018-12-20T20:21:12.117Z,48.30
2018-12-20T20:23:40.315Z,45.13
2018-12-20T20:26:08.470Z,46.83
2018-12-20T20:28:36.628Z,46.83
2018-12-20T20:31:04.778Z,50.60
2018-12-20T20:33:33.001Z,50.07
2018-12-20T20:36:01.874Z,50.03
2018-12-20T20:38:30.015Z,53.63
2018-12-20T20:40:58.175Z,48.00
2018-12-20T20:43:26.366Z,44.53
2018-12-20T20:45:54.558Z,44.07
2018-12-20T20:48:23.515Z,44.73
2018-12-20T20:50:51.724Z,47.23
2018-12-20T20:53:19.880Z,45.57
2018-12-20T20:55:48.043Z,48.27
2018-12-20T20:58:16.199Z,44.50
2018-12-20T21:00:44.367Z,46.73
2018-12-20T21:03:12.498Z,46.87
2018-12-20T21:05:40.661Z,47.87
2018-12-20T21:08:08.831Z,50.97
2018-12-20T21:10:36.991Z,53.80
2018-12-20T21:13:05.135Z,51.83
2018-12-20T21:15:33.349Z,51.70
2018-12-20T21:18:01.501Z,51.47
2018-12-20T21:20:30.903Z,56.83
2018-12-20T21:22:59.412Z,51.80
2018-12-20T21:25:27.571Z,51.67
2018-12-20T21:27:55.785Z,52.33
2018-12-20T21:30:24.041Z,58.57
2018-12-20T21:32:52.347Z,58.20
2018-12-20T21:35:20.571Z,54.47
2018-12-20T21:37:48.775Z,60.27
2018-12-20T21:40:18.714Z,56.33
2018-12-20T21:42:47.120Z,52.73
2018-12-20T21:45:15.410Z,53.27
2018-12-20T21:47:44.186Z,52.40
2018-12-20T21:50:12.349Z,55.37
2018-12-20T21:52:40.493Z,53.10
2018-12-20T21:55:08.646Z,60.60
2018-12-20T21:57:36.802Z,55.13
2018-12-20T22:00:08.790Z,59.67
2018-12-20T22:02:37.047Z,62.67
2018-12-20T22:05:05.732Z,49.03
2018-12-20T22:07:33.877Z,38.67
2018-12-20T22:10:02.147Z,40.70
2018-12-20T22:12:30.333Z,51.87
2018-12-20T22:14:58.493Z,52.70
2018-12-20T22:17:26.701Z,50.67
2018-12-20T22:19:58.548Z,49.27
2018-12-20T22:22:25.073Z,50.80
2018-12-20T22:24:53.315Z,49.83
2018-12-20T22:27:21.565Z,51.80
2018-12-20T22:29:49.776Z,53.33
2018-12-20T22:32:18.173Z,57.40
2018-12-20T22:34:46.338Z,52.63
2018-12-20T22:37:14.551Z,55.13
2018-12-20T22:39:42.760Z,53.13
2018-12-20T22:42:10.998Z,45.10
2018-12-20T22:44:39.266Z,51.87
2018-12-20T22:47:07.424Z,52.37
2018-12-20T22:49:35.662Z,48.50
2018-12-20T22:52:03.859Z,49.97
2018-12-20T22:54:32.039Z,49.07
2018-12-20T22:57:01.018Z,52.07
2018-12-20T22:59:29.171Z,48.23
2018-12-20T23:01:57.435Z,46.07
2018-12-20T23:04:25.832Z,45.73
2018-12-20T23:06:53.992Z,45.00
2018-12-20T23:09:22.222Z,48.57
2018-12-20T23:11:50.827Z,48.10
2018-12-20T23:14:19.011Z,49.00
2018-12-20T23:16:53.664Z,46.67
2018-12-20T23:19:17.367Z,47.80
2018-12-20T23:21:45.540Z,42.23
2018-12-20T23:24:13.730Z,41.83
2018-12-20T23:26:41.883Z,42.30
2018-12-20T23:29:10.038Z,43.23
2018-12-20T23:31:38.173Z,45.60
2018-12-20T23:34:06.320Z,43.57
2018-12-20T23:36:34.474Z,51.50
2018-12-20T23:39:02.778Z,52.70
2018-12-20T23:41:31.002Z,42.50
2018-12-20T23:43:59.244Z,49.93
2018-12-20T23:46:27.447Z,46.57
2018-12-20T23:48:55.698Z,39.50
2018-12-20T23:51:23.982Z,38.60
2018-12-20T23:53:52.186Z,36.23
2018-12-20T23:56:20.489Z,39.60
2018-12-20T23:58:48.715Z,39.73
